Beaufort MCAS - Merritt Field
KNBC : now visible

Airfield :











YOU CAN JOIN US ON...

 
LOGIN :

Register | Disclaimer

   EN    FR    IT 

 









Legend :    VFR   Marginal VFR   IFR   Intensive IFR   Very Intensive IFR
Visi :
Ceiling :
>= 8 km
>= 3000ft
5 to 8 km
1000 to 3000 ft
1500m to 5 km
500 to 1000 ft
800 to 1500m
200 to 500 ft
< 800m
< 200 ft
Symbols :   Thunderstorms  Fog  Heavy snow  Heavy precipitations  Wind > 20 kt






- Airport Elevation : 37 ft


KNBC - Beaufort MCAS - Merritt Field

CURRENT METAR :
  • 090356Z 24007KT 10SM CLR 23/20 A2972 RMK AO2 SLP065 T02330200 PNO $

EXPIRED METARs :
  • 090256Z 23004KT 10SM FEW080 23/19 A2973 RMK AO2 SLP069 LAST 6//// T02330194 58007 PNO $
  • 090156Z 24004KT 10SM FEW080 24/19 A2976 RMK AO2 SLP079 T02440194 PNO $

TAF TAF KNBC
Valid from the 09 at 03:00 until the 10 at 03:00 UTC


0903/1003 VRB06KT 9999 SCT080 QNH2966INS
TEMPO 0910/0912 8000 BR BKN010 BKN100
BECMG 0912/0914 28012G20KT 9999 NSW BKN025 BKN150 QNH2962INS
BECMG 0918/0920 30015G25KT 9999 FEW250 QNH2960INS T20/0906Z T29/0920Z



MET'MAP, your aeronautical weather chart ! - Copyright ORBIFLY December 2007 - Disclaimer

ORBIFLY MET'MAP TEAM :

Programming & Development : Alexandra Zaïnal
Concept & original design : Baudouin d'Aumeries
Assistance for programming : Marc-Olivier Méhu
Technical & hardware support : Manuel Goepfert

Contact : metmap@orbifly.com




SOURCES & CREDITS :

   NOAA       Earth
Advisory